Latest Weather Observations for Wattamolla

IDN60901

Issued at 10:51 am EDT Monday 18 February 2019 (issued every 10 minutes, with the page automatically refreshed every 10 minutes)

About weather observations | Map of Sydney area stations | Latest observations for Sydney area | Other Formats
Station Details ID: 066208 Name: WATTAMOLLA AWS Lat: -34.14 Lon: 151.12 Height: 44.0 m
Data from the previous 72 hours. | See also: Recent months at Wattamolla
Date/Time
EDT
Temp
°C
App
Temp
°C
Dew
Point
°C
Rel
Hum
%
Delta-T
°C
Wind Press
QNH
hPa
Press
MSL
hPa
Rain since
9am
mm
Dir  Spd
km/h
Gust
km/h
Spd
kts
Gust
kts
18/10:30am - - - - - N 15 26 8 14 - - -
18/10:00am - - - - - NNE 11 20 6 11 - - -
18/09:30am - - - - - N 13 20 7 11 - - -
18/09:00am - - - - - NNW 13 17 7 9 - - -
18/08:30am - - - - - N 15 22 8 12 - - -
18/08:00am - - - - - N 15 17 8 9 - - -
18/07:30am - - - - - NNW 13 15 7 8 - - -
18/07:00am - - - - - NNW 11 15 6 8 - - -
18/06:30am - - - - - NNW 9 13 5 7 - - -
18/06:00am - - - - - NNW 13 13 7 7 - - -
18/05:30am - - - - - NNW 13 15 7 8 - - -
18/05:00am - - - - - NNW 13 15 7 8 - - -
18/04:30am - - - - - N 11 13 6 7 - - -
18/04:00am - - - - - NNW 9 11 5 6 - - -
18/03:30am - - - - - N 9 11 5 6 - - -
18/03:00am - - - - - NNW 9 11 5 6 - - -
18/02:30am - - - - - N 11 15 6 8 - - -
18/02:00am - - - - - N 11 15 6 8 - - -
18/01:30am - - - - - N 15 19 8 10 - - -
18/01:00am - - - - - N 11 15 6 8 - - -
18/12:30am - - - - - N 15 19 8 10 - - -
18/12:00am - - - - - N 13 15 7 8 - - -
 
Date/Time
EDT
Temp
°C
App
Temp
°C
Dew
Point
°C
Rel
Hum
%
Delta-T
°C
Wind Press
QNH
hPa
Press
MSL
hPa
Rain since
9am
mm
Dir  Spd
km/h
Gust
km/h
Spd
kts
Gust
kts
17/11:30pm - - - - - N 20 28 11 15 - - -
17/11:00pm - - - - - N 26 35 14 19 - - -
17/10:30pm - - - - - N 22 32 12 17 - - -
17/10:00pm - - - - - N 22 30 12 16 - - -
17/09:30pm - - - - - N 24 33 13 18 - - -
17/09:00pm - - - - - N 30 39 16 21 - - -
17/08:30pm - - - - - N 30 41 16 22 - - -
17/08:00pm - - - - - N 30 39 16 21 - - -
17/07:30pm - - - - - NNE 30 41 16 22 - - -
17/07:00pm - - - - - N 26 35 14 19 - - -
17/06:30pm - - - - - NNE 26 37 14 20 - - -
17/06:00pm - - - - - NNE 28 41 15 22 - - -
17/05:30pm - - - - - NNE 28 37 15 20 - - -
17/05:00pm - - - - - NE 24 33 13 18 - - -
17/04:30pm - - - - - NE 28 35 15 19 - - -
17/04:00pm - - - - - NNE 26 35 14 19 - - -
17/03:30pm - - - - - NE 26 39 14 21 - - -
17/03:00pm - - - - - NE 28 37 15 20 - - -
17/02:30pm - - - - - NE 28 37 15 20 - - -
17/02:00pm - - - - - NE 26 37 14 20 - - -
17/01:30pm - - - - - NE 28 37 15 20 - - -
17/01:00pm - - - - - NE 24 35 13 19 - - -
17/12:30pm - - - - - NE 24 33 13 18 - - -
17/12:00pm - - - - - NE 24 33 13 18 - - -
17/11:30am - - - - - ENE 19 28 10 15 - - -
17/11:00am - - - - - NNW 15 26 8 14 - - -
17/10:30am - - - - - N 20 30 11 16 - - -
17/10:00am - - - - - N 19 32 10 17 - - -
17/09:30am - - - - - N 20 32 11 17 - - -
17/09:00am - - - - - NNW 13 19 7 10 - - -
17/08:30am - - - - - N 13 19 7 10 - - -
17/08:00am - - - - - NNW 13 20 7 11 - - -
17/07:30am - - - - - N 13 17 7 9 - - -
17/07:00am - - - - - NNW 15 17 8 9 - - -
17/06:30am - - - - - NNW 17 19 9 10 - - -
17/06:00am - - - - - N 17 17 9 9 - - -
17/05:30am - - - - - N 11 15 6 8 - - -
17/05:00am - - - - - NNW 11 15 6 8 - - -
17/04:30am - - - - - NNW 11 13 6 7 - - -
17/04:00am - - - - - NNW 9 13 5 7 - - -
17/03:30am - - - - - NNW 11 17 6 9 - - -
17/03:00am - - - - - NNW 13 17 7 9 - - -
17/02:30am - - - - - NNW 13 17 7 9 - - -
17/02:00am - - - - - N 15 17 8 9 - - -
17/01:30am - - - - - N 15 17 8 9 - - -
17/01:00am - - - - - NNW 13 15 7 8 - - -
17/12:30am - - - - - N 15 19 8 10 - - -
17/12:00am - - - - - N 13 17 7 9 - - -
 
Date/Time
EDT
Temp
°C
App
Temp
°C
Dew
Point
°C
Rel
Hum
%
Delta-T
°C
Wind Press
QNH
hPa
Press
MSL
hPa
Rain since
9am
mm
Dir  Spd
km/h
Gust
km/h
Spd
kts
Gust
kts
16/11:30pm - - - - - N 15 17 8 9 - - -
16/11:00pm - - - - - N 20 28 11 15 - - -
16/10:30pm - - - - - N 15 19 8 10 - - -
16/10:00pm - - - - - N 19 26 10 14 - - -
16/09:30pm - - - - - N 20 26 11 14 - - -
16/09:00pm - - - - - N 20 28 11 15 - - -
16/08:30pm - - - - - N 19 24 10 13 - - -
16/08:00pm - - - - - NNE 20 32 11 17 - - -
16/07:30pm - - - - - NNE 20 30 11 16 - - -
16/07:00pm - - - - - NNE 22 32 12 17 - - -
16/06:30pm - - - - - NNE 20 37 11 20 - - -
16/06:00pm - - - - - NNE 22 33 12 18 - - -
16/05:30pm - - - - - NE 22 33 12 18 - - -
16/05:00pm - - - - - NE 17 26 9 14 - - -
16/04:30pm - - - - - NE 19 28 10 15 - - -
16/04:00pm - - - - - NE 20 28 11 15 - - -
16/03:30pm - - - - - NE 22 33 12 18 - - -
16/03:00pm - - - - - NE 20 30 11 16 - - -
16/02:30pm - - - - - NE 22 32 12 17 - - -
16/02:00pm - - - - - ENE 17 26 9 14 - - -
16/01:30pm - - - - - NE 17 26 9 14 - - -
16/01:00pm - - - - - ENE 17 26 9 14 - - -
16/12:30pm - - - - - NE 20 28 11 15 - - -
16/12:00pm - - - - - ENE 19 26 10 14 - - -
16/11:30am - - - - - NE 15 19 8 10 - - -
16/11:00am - - - - - NNE 13 26 7 14 - - -
16/10:30am - - - - - NNE 17 26 9 14 - - -
16/10:00am - - - - - ENE 13 19 7 10 - - -
16/09:30am - - - - - NNE 11 17 6 9 - - -
16/09:00am - - - - - N 11 17 6 9 - - -
16/08:30am - - - - - NNW 9 13 5 7 - - -
16/08:00am - - - - - NNW 9 11 5 6 - - -
16/07:30am - - - - - NW 13 17 7 9 - - -
16/07:00am - - - - - NW 13 17 7 9 - - -
16/06:30am - - - - - NW 15 17 8 9 - - -
16/06:00am - - - - - NW 13 17 7 9 - - -
16/05:30am - - - - - NW 13 15 7 8 - - -
16/05:00am - - - - - WNW 13 17 7 9 - - -
16/04:30am - - - - - WNW 17 19 9 10 - - -
16/04:00am - - - - - WNW 19 22 10 12 - - -
16/03:30am - - - - - NW 17 20 9 11 - - -
16/03:00am - - - - - NW 17 17 9 9 - - -
16/02:30am - - - - - NW 17 19 9 10 - - -
16/02:00am - - - - - NW 17 19 9 10 - - -
16/01:30am - - - - - NW 17 19 9 10 - - -
16/01:00am - - - - - NW 19 19 10 10 - - -
16/12:30am - - - - - NW 17 19 9 10 - - -
16/12:00am - - - - - NW 15 17 8 9 - - -
 
Date/Time
EDT
Temp
°C
App
Temp
°C
Dew
Point
°C
Rel
Hum
%
Delta-T
°C
Wind Press
QNH
hPa
Press
MSL
hPa
Rain since
9am
mm
Dir  Spd
km/h
Gust
km/h
Spd
kts
Gust
kts
15/11:30pm - - - - - NW 15 15 8 8 - - -
15/11:00pm - - - - - NNW 15 17 8 9 - - -
15/10:30pm - - - - - NNW 15 17 8 9 - - -
15/10:00pm - - - - - NNW 13 15 7 8 - - -
15/09:30pm - - - - - NNW 11 13 6 7 - - -
15/09:00pm - - - - - N 11 13 6 7 - - -
15/08:30pm - - - - - NNE 13 17 7 9 - - -
15/08:00pm - - - - - NNE 11 17 6 9 - - -
15/07:30pm - - - - - NE 15 20 8 11 - - -
15/07:00pm - - - - - NE 17 24 9 13 - - -
15/06:30pm - - - - - NE 15 20 8 11 - - -
15/06:00pm - - - - - NE 15 24 8 13 - - -
15/05:30pm - - - - - NE 15 19 8 10 - - -
15/05:00pm - - - - - ENE 15 19 8 10 - - -
15/04:30pm - - - - - E 13 19 7 10 - - -
15/04:00pm - - - - - ESE 11 17 6 9 - - -
15/03:30pm - - - - - E 13 19 7 10 - - -
15/03:00pm - - - - - E 13 19 7 10 - - -
15/02:30pm - - - - - ENE 19 26 10 14 - - -
15/02:00pm - - - - - ENE 17 24 9 13 - - -
15/01:30pm - - - - - ENE 19 24 10 13 - - -
15/01:00pm - - - - - ENE 19 24 10 13 - - -
15/12:30pm - - - - - ENE 19 26 10 14 - - -
15/12:00pm - - - - - E 13 17 7 9 - - -
15/11:30am - - - - - E 9 13 5 7 - - -
15/11:00am - - - - - E 9 13 5 7 - - -

Latest Capital City Observations: Canberra | Sydney | Melbourne | Brisbane | Adelaide | Perth | Hobart | Darwin

Other formats

Comma delimited format used in spreadsheet applications
http://www.bom.gov.au/fwo/IDN60901/IDN60901.95752.axf

JavaScript Object Notation format (JSON) in row-major order
http://www.bom.gov.au/fwo/IDN60901/IDN60901.95752.json

Data quality

Most of these data are generated automatically and are frequently updated. Quality checks on data are not normally performed. It is possible for incorrect values to appear. Refer to information at About Latest Weather Observations and please check the disclaimer before using these data.